Řízení letového provozu České republiky
Letiste: LKMT Aktualizace: 18.12.2018 18:01:07  UTC
 METAR LKMT 18.12. 18:00 ...
METAR LKMT 181800Z 24004KT 4000 BR BKN038 00/M01 Q1028 NOSIG RMK REG QNH 1019=
 TAF LKMT 18.12. 17:00 ...
TAF LKMT 181700Z 1818/2000 23008KT 3000 BR BKN035      TEMPO 1818/1909 1200 BR BKN010      PROB30 TEMPO 1818/1908 0700 FZFG BKN005      BECMG 1909/1911 22014KT CAVOK=